This is the latest recevied weather packets stored in our database for station/object IW8PDD-3. If no packets are shown the sender has not sent any weather packets the latest 10 day(s).
| Time | Temp. | Humidity | Pressure | Rain* | Wind** | Luminosity | Snow |
|---|---|---|---|---|---|---|---|
| 1777386842 | 29.44° C | 43% | 1015.4 hPa | - | - | - | - |
| 1777385638 | 30° C | 43% | 1015.5 hPa | - | - | - | - |
| 1777384434 | 28.89° C | 45% | 1015.5 hPa | - | - | - | - |
| 1777383230 | 26.67° C | 50% | 1015.8 hPa | - | - | - | - |
| 1777382026 | 26.11° C | 52% | 1016 hPa | - | - | - | - |
| 1777380822 | 26.11° C | 52% | 1016.1 hPa | - | - | - | - |
| 1777379619 | 26.11° C | 52% | 1016.2 hPa | - | - | - | - |
| 1777378415 | 24.44° C | 55% | 1016.4 hPa | - | - | - | - |
| 1777377212 | 23.89° C | 55% | 1016.3 hPa | - | - | - | - |
| 1777376009 | 24.44° C | 56% | 1016.4 hPa | - | - | - | - |
| 1777374805 | 21.11° C | 58% | 1016.6 hPa | - | - | - | - |
| 1777373602 | 21.11° C | 58% | 1016.7 hPa | - | - | - | - |
| 1777372398 | 21.11° C | 57% | 1016.8 hPa | - | - | - | - |
| 1777370739 | 19.44° C | 60% | 1016.8 hPa | - | - | - | - |
| 1777369535 | 20° C | 60% | 1016.8 hPa | - | - | - | - |
| 1777368332 | 19.44° C | 60% | 1017 hPa | - | - | - | - |
| 1777367128 | 20° C | 58% | 1016.8 hPa | - | - | - | - |
| 1777365925 | 20° C | 58% | 1016.7 hPa | - | - | - | - |
| 1777364721 | 19.44° C | 59% | 1016.7 hPa | - | - | - | - |
| 1777363518 | 19.44° C | 59% | 1016.7 hPa | - | - | - | - |
| 1777362314 | 18.89° C | 59% | 1016.6 hPa | - | - | - | - |
| 1777361111 | 18.89° C | 58% | 1016.5 hPa | - | - | - | - |
| 1777358704 | 17.78° C | 60% | 1016.7 hPa | - | - | - | - |
| 1777352687 | 16.67° C | 61% | 1016.3 hPa | - | - | - | - |
| 1777351483 | 16.11° C | 61% | 1016.2 hPa | - | - | - | - |
* Rain since midnight (hover to see other rain measurements)
** Current wind speed in m/s (hover to see current wind gust speed)